Time;durP1;ratioP1;P1;durP2;ratioP2;P2;SDS_P1;SDS_P2;PMS_P1;PMS_P2;Temp;Humidity;BMP_temperature;BMP_pressure;BME280_temperature;BME280_humidity;BME280_pressure;Samples;Min_cycle;Max_cycle;Signal;HPM_P1;HPM_P2
2021/06/21 00:02:23;;;;;;;0.40;0.20;;;17.10;99.90;;;;;;4956190;28;20400;-76
2021/06/21 00:04:50;;;;;;;0.40;0.30;;;16.90;99.90;;;;;;4974713;28;20392;-75
2021/06/21 00:07:16;;;;;;;0.40;0.20;;;17.00;99.90;;;;;;4956495;28;20396;-75
2021/06/21 00:09:42;;;;;;;0.40;0.20;;;16.90;99.90;;;;;;4974614;28;20418;-75
2021/06/21 00:12:09;;;;;;;0.40;0.20;;;16.80;99.90;;;;;;4965982;28;20398;-77
2021/06/21 00:14:35;;;;;;;0.40;0.30;;;16.90;99.90;;;;;;4982382;28;20432;-75
2021/06/21 00:17:01;;;;;;;0.40;0.20;;;16.80;99.90;;;;;;4974214;28;20519;-75
2021/06/21 00:19:27;;;;;;;0.40;0.20;;;16.80;99.90;;;;;;4973223;28;20423;-75
2021/06/21 00:21:54;;;;;;;0.40;0.20;;;16.90;99.90;;;;;;4989110;28;20832;-75
2021/06/21 00:24:20;;;;;;;0.40;0.20;;;17.00;99.90;;;;;;4972743;28;20407;-75
2021/06/21 00:26:48;;;;;;;0.40;0.22;;;16.90;99.90;;;;;;4974415;28;20462;-75
2021/06/21 00:29:14;;;;;;;0.40;0.20;;;17.00;99.90;;;;;;4973270;28;20392;-76
2021/06/21 00:31:40;;;;;;;0.40;0.20;;;17.00;99.90;;;;;;4973955;28;20800;-75
2021/06/21 00:34:06;;;;;;;0.40;0.20;;;17.00;99.90;;;;;;4973988;28;20455;-75
2021/06/21 00:36:31;;;;;;;0.40;0.20;;;17.00;99.90;;;;;;4972811;28;20396;-75
2021/06/21 00:38:57;;;;;;;0.40;0.20;;;16.90;99.90;;;;;;4973905;28;20753;-75
2021/06/21 00:41:23;;;;;;;0.40;0.20;;;17.10;99.90;;;;;;4987646;28;20400;-75
2021/06/21 00:43:48;;;;;;;0.40;0.20;;;17.00;99.90;;;;;;4973575;28;20423;-75
2021/06/21 00:46:14;;;;;;;0.40;0.30;;;17.00;99.90;;;;;;4955832;28;20823;-76
2021/06/21 00:48:41;;;;;;;0.40;0.20;;;17.00;99.90;;;;;;4956503;28;20416;-74
2021/06/21 00:51:08;;;;;;;0.40;0.20;;;17.10;99.90;;;;;;4988989;28;20776;-74
2021/06/21 00:53:34;;;;;;;0.40;0.20;;;17.30;99.90;;;;;;4955398;28;20400;-75
2021/06/21 00:56:00;;;;;;;0.40;0.20;;;17.20;99.90;;;;;;4973888;28;20396;-74
2021/06/21 00:58:26;;;;;;;0.40;0.30;;;17.40;99.90;;;;;;4972470;28;20388;-74
2021/06/21 01:00:52;;;;;;;0.40;0.30;;;17.30;99.90;;;;;;4973559;28;20456;-75
2021/06/21 01:03:18;;;;;;;0.40;0.20;;;17.30;99.90;;;;;;4972736;28;20765;-75
2021/06/21 01:05:44;;;;;;;0.40;0.20;;;17.30;99.90;;;;;;4973336;28;20389;-75
2021/06/21 01:08:10;;;;;;;0.40;0.20;;;17.40;99.90;;;;;;4973394;28;20387;-74
2021/06/21 01:10:39;;;;;;;0.40;0.20;;;17.30;99.90;;;;;;4972713;28;20845;-74
2021/06/21 01:13:30;;;;;;;0.40;0.20;;;17.30;99.90;;;;;;4990464;28;20426;-75
2021/06/21 01:16:19;;;;;;;0.40;0.20;;;17.30;99.90;;;;;;4992717;28;20398;-75
2021/06/21 01:19:01;;;;;;;0.40;0.20;;;17.30;99.90;;;;;;4992627;28;20468;-74
2021/06/21 01:22:02;;;;;;;0.40;0.20;;;17.30;99.90;;;;;;4974675;28;20747;-74
2021/06/21 01:24:56;;;;;;;0.40;0.20;;;17.20;99.90;;;;;;4974736;28;20395;-74
2021/06/21 01:27:33;;;;;;;0.40;0.20;;;17.40;99.90;;;;;;4976540;28;20404;-74
2021/06/21 01:29:59;;;;;;;0.40;0.30;;;17.50;99.90;;;;;;4973465;28;20400;-73
2021/06/21 01:32:30;;;;;;;0.40;0.20;;;17.60;99.90;;;;;;4987556;28;20450;-74
2021/06/21 01:34:59;;;;;;;0.40;0.20;;;17.60;99.90;;;;;;4973357;28;20452;-73
2021/06/21 01:37:26;;;;;;;0.40;0.20;;;17.90;99.90;;;;;;4971244;28;20880;-73
2021/06/21 01:39:55;;;;;;;0.40;0.20;;;18.20;99.90;;;;;;4972405;28;20420;-72
2021/06/21 01:42:22;;;;;;;0.40;0.30;;;18.20;99.90;;;;;;4972118;28;20418;-72
2021/06/21 01:44:55;;;;;;;0.40;0.20;;;18.30;99.90;;;;;;4972666;28;20483;-72
2021/06/21 01:47:22;;;;;;;0.40;0.20;;;18.20;99.90;;;;;;4972060;28;20400;-72
2021/06/21 01:49:49;;;;;;;0.70;0.50;;;18.00;99.90;;;;;;4972626;28;20471;-72
2021/06/21 01:52:18;;;;;;;0.40;0.20;;;18.00;99.90;;;;;;4972031;28;20473;-73
2021/06/21 01:54:56;;;;;;;0.40;0.30;;;17.80;99.90;;;;;;4972679;28;20407;-72
2021/06/21 01:57:25;;;;;;;0.40;0.30;;;17.70;99.90;;;;;;4971268;28;20852;-72
2021/06/21 01:59:52;;;;;;;0.40;0.30;;;17.60;99.90;;;;;;4971841;28;20466;-72
2021/06/21 02:02:21;;;;;;;0.40;0.30;;;17.70;99.90;;;;;;4971754;28;20420;-73
2021/06/21 02:04:49;;;;;;;0.40;0.20;;;17.80;99.90;;;;;;4954852;28;20888;-72
2021/06/21 02:07:19;;;;;;;0.40;0.20;;;18.00;99.90;;;;;;4972259;28;20380;-73
2021/06/21 02:09:46;;;;;;;0.40;0.30;;;18.00;99.90;;;;;;4954759;28;20408;-72
2021/06/21 02:12:20;;;;;;;0.40;0.30;;;17.90;99.90;;;;;;4980345;28;20393;-72
2021/06/21 02:14:51;;;;;;;0.40;0.20;;;17.80;99.90;;;;;;4971997;28;20423;-72
2021/06/21 02:17:22;;;;;;;0.40;0.20;;;17.80;99.90;;;;;;4971850;28;20471;-74
2021/06/21 02:19:51;;;;;;;0.40;0.20;;;17.70;99.90;;;;;;4972376;28;20420;-72
2021/06/21 02:22:23;;;;;;;0.40;0.20;;;17.70;99.90;;;;;;4971915;28;20844;-74
2021/06/21 02:24:50;;;;;;;0.40;0.30;;;17.60;99.90;;;;;;4971962;28;20487;-72
2021/06/21 02:27:18;;;;;;;0.50;0.40;;;17.50;99.90;;;;;;4971465;28;20414;-74
2021/06/21 02:29:44;;;;;;;0.40;0.20;;;17.40;99.90;;;;;;4971802;28;20392;-73
2021/06/21 02:32:09;;;;;;;0.40;0.20;;;17.30;99.90;;;;;;4971354;28;20759;-73
2021/06/21 02:34:35;;;;;;;0.40;0.20;;;17.20;99.90;;;;;;4971403;28;20399;-73
2021/06/21 02:37:01;;;;;;;0.40;0.20;;;17.60;99.90;;;;;;4972040;28;20479;-73
2021/06/21 02:39:27;;;;;;;0.40;0.20;;;17.50;99.90;;;;;;4971216;28;20900;-73
2021/06/21 02:41:53;;;;;;;0.40;0.20;;;17.80;99.90;;;;;;4971507;28;20550;-73
2021/06/21 02:44:19;;;;;;;0.40;0.20;;;18.00;99.90;;;;;;4970660;28;20912;-74
2021/06/21 02:46:44;;;;;;;0.40;0.20;;;17.90;99.90;;;;;;4971264;28;20404;-73
2021/06/21 02:49:10;;;;;;;0.40;0.20;;;17.70;99.90;;;;;;4971678;28;20475;-73
2021/06/21 02:51:49;;;;;;;0.40;0.20;;;17.40;99.90;;;;;;4971064;28;20392;-73
2021/06/21 02:54:43;;;;;;;0.40;0.25;;;17.20;99.90;;;;;;4971952;28;20392;-73
2021/06/21 02:57:28;;;;;;;0.40;0.20;;;17.20;99.90;;;;;;4971823;28;20458;-72
2021/06/21 02:59:56;;;;;;;0.40;0.20;;;17.20;99.90;;;;;;4971082;28;20915;-72
2021/06/21 03:02:23;;;;;;;0.40;0.30;;;17.20;99.90;;;;;;4970923;28;20432;-73
2021/06/21 03:04:49;;;;;;;0.40;0.20;;;17.20;99.90;;;;;;4954112;28;20407;-72
2021/06/21 03:07:18;;;;;;;0.40;0.30;;;17.10;99.90;;;;;;4971336;28;20399;-72
2021/06/21 03:09:47;;;;;;;0.40;0.20;;;17.10;99.90;;;;;;4971095;28;20401;-72
2021/06/21 03:12:31;;;;;;;0.40;0.20;;;17.10;99.90;;;;;;4981527;28;20391;-73
2021/06/21 03:14:57;;;;;;;0.40;0.30;;;17.10;99.90;;;;;;4991209;28;20763;-72
2021/06/21 03:17:24;;;;;;;0.40;0.30;;;17.00;99.90;;;;;;4990138;28;20390;-73
2021/06/21 03:19:50;;;;;;;0.40;0.30;;;17.00;99.90;;;;;;4990959;28;20418;-72
2021/06/21 03:22:23;;;;;;;0.40;0.20;;;16.90;99.90;;;;;;4990166;28;20840;-72
2021/06/21 03:24:54;;;;;;;0.40;0.20;;;16.90;99.90;;;;;;4990950;28;20390;-72
2021/06/21 03:27:27;;;;;;;0.40;0.20;;;17.00;99.90;;;;;;4990713;28;20386;-73
2021/06/21 03:29:54;;;;;;;0.40;0.20;;;17.10;99.90;;;;;;4990853;28;20403;-72
2021/06/21 03:32:26;;;;;;;0.40;0.20;;;17.10;99.90;;;;;;4972152;28;20419;-73
2021/06/21 03:34:53;;;;;;;0.40;0.20;;;17.00;99.90;;;;;;4973583;28;20399;-72
2021/06/21 03:37:18;;;;;;;0.40;0.20;;;17.10;99.90;;;;;;4990748;28;20457;-73
2021/06/21 03:39:44;;;;;;;0.40;0.20;;;17.00;99.90;;;;;;4984183;28;20424;-72
2021/06/21 03:42:10;;;;;;;0.40;0.20;;;17.00;99.90;;;;;;4971370;28;20416;-72
2021/06/21 03:44:36;;;;;;;0.40;0.23;;;16.90;99.90;;;;;;4976548;28;20407;-72
2021/06/21 03:47:01;;;;;;;0.40;0.20;;;16.90;99.90;;;;;;4990654;28;20390;-72
2021/06/21 03:49:27;;;;;;;0.40;0.20;;;16.80;99.90;;;;;;4989160;28;20402;-73
2021/06/21 03:51:53;;;;;;;0.40;0.20;;;16.80;99.90;;;;;;4971132;28;20396;-72
2021/06/21 03:54:18;;;;;;;0.40;0.28;;;16.70;99.90;;;;;;4970798;28;20400;-72
2021/06/21 03:56:44;;;;;;;0.40;0.30;;;16.70;99.90;;;;;;4970256;28;20403;-72
2021/06/21 03:59:10;;;;;;;0.40;0.20;;;16.60;99.90;;;;;;4972044;28;20416;-72
2021/06/21 04:01:35;;;;;;;0.40;0.20;;;16.60;99.90;;;;;;4974086;28;20875;-72
2021/06/21 04:04:01;;;;;;;0.40;0.20;;;16.60;99.90;;;;;;4957422;28;20480;-72
2021/06/21 04:06:27;;;;;;;0.40;0.20;;;16.60;99.90;;;;;;4974308;28;20396;-72
2021/06/21 04:08:53;;;;;;;0.40;0.30;;;16.70;99.90;;;;;;4976837;28;20399;-72
2021/06/21 04:11:19;;;;;;;0.40;0.30;;;16.80;99.90;;;;;;4977862;28;20449;-72
2021/06/21 04:13:44;;;;;;;0.40;0.20;;;16.80;99.90;;;;;;4956999;28;20435;-72
2021/06/21 04:16:10;;;;;;;0.40;0.30;;;16.80;99.90;;;;;;4974655;28;20407;-72
2021/06/21 04:18:36;;;;;;;0.40;0.20;;;16.90;99.90;;;;;;4988743;28;20784;-72
2021/06/21 04:21:01;;;;;;;0.40;0.20;;;16.80;99.90;;;;;;4974939;28;20471;-72
2021/06/21 04:23:27;;;;;;;0.40;0.22;;;16.80;99.90;;;;;;4973750;28;20395;-72
2021/06/21 04:25:53;;;;;;;0.40;0.30;;;16.70;99.90;;;;;;4974461;28;20865;-72
2021/06/21 04:28:18;;;;;;;0.40;0.30;;;16.90;99.90;;;;;;4974668;28;20380;-72
2021/06/21 04:30:45;;;;;;;0.40;0.20;;;16.90;99.90;;;;;;4973881;28;20380;-72
2021/06/21 04:33:11;;;;;;;0.40;0.30;;;17.00;99.90;;;;;;4974266;28;20428;-72
2021/06/21 04:35:37;;;;;;;0.40;0.20;;;16.90;99.90;;;;;;4973512;28;20872;-72
2021/06/21 04:38:02;;;;;;;0.40;0.22;;;17.00;99.90;;;;;;4974524;28;20471;-72
2021/06/21 04:40:31;;;;;;;0.40;0.20;;;17.00;99.90;;;;;;4973317;28;20462;-73
2021/06/21 04:42:58;;;;;;;0.40;0.20;;;17.00;99.90;;;;;;4973974;28;20415;-72
2021/06/21 04:45:25;;;;;;;0.40;0.20;;;17.00;99.90;;;;;;4973859;28;20399;-73
2021/06/21 04:47:51;;;;;;;0.40;0.20;;;17.10;99.90;;;;;;4973872;28;20428;-72
2021/06/21 04:50:18;;;;;;;0.40;0.30;;;17.00;99.90;;;;;;4978492;28;20443;-71
2021/06/21 04:52:46;;;;;;;0.40;0.22;;;17.10;99.90;;;;;;4955958;28;20432;-71
2021/06/21 04:55:14;;;;;;;0.40;0.20;;;17.10;99.90;;;;;;4973774;28;20468;-71
2021/06/21 04:57:40;;;;;;;0.40;0.20;;;17.20;99.90;;;;;;4972720;28;20456;-71
2021/06/21 05:00:09;;;;;;;0.40;0.20;;;17.30;99.90;;;;;;4973985;28;20765;-71
2021/06/21 05:02:35;;;;;;;0.40;0.20;;;17.40;99.90;;;;;;4972976;28;20455;-71
2021/06/21 05:05:01;;;;;;;0.40;0.20;;;17.50;99.90;;;;;;4973532;28;20404;-71
2021/06/21 05:07:26;;;;;;;0.40;0.20;;;17.50;99.90;;;;;;4973069;28;20400;-72
2021/06/21 05:09:52;;;;;;;0.40;0.20;;;17.60;99.90;;;;;;4956519;28;20419;-71
2021/06/21 05:12:18;;;;;;;0.40;0.20;;;17.50;99.90;;;;;;4971513;28;20419;-71
2021/06/21 05:14:44;;;;;;;0.40;0.25;;;17.50;99.90;;;;;;4972385;28;20497;-71
2021/06/21 05:17:11;;;;;;;0.40;0.30;;;17.60;99.90;;;;;;4972956;28;20376;-71
2021/06/21 05:19:37;;;;;;;0.40;0.20;;;17.60;99.90;;;;;;4971914;28;20416;-72
2021/06/21 05:22:07;;;;;;;0.40;0.20;;;17.60;99.90;;;;;;4973432;28;20912;-72
2021/06/21 05:24:33;;;;;;;0.40;0.30;;;17.60;99.90;;;;;;4972090;28;20404;-71
2021/06/21 05:26:59;;;;;;;0.40;0.20;;;17.70;99.90;;;;;;4972705;28;20490;-71
2021/06/21 05:29:25;;;;;;;0.40;0.20;;;17.70;99.90;;;;;;4956028;28;20432;-72
2021/06/21 05:31:50;;;;;;;0.40;0.30;;;17.70;99.90;;;;;;4972011;28;20468;-73
2021/06/21 05:34:16;;;;;;;0.40;0.20;;;17.80;99.90;;;;;;4972775;28;20396;-74
2021/06/21 05:36:42;;;;;;;0.40;0.20;;;18.00;99.90;;;;;;4971680;28;20384;-74
2021/06/21 05:39:10;;;;;;;0.40;0.20;;;18.00;99.90;;;;;;4954950;28;20424;-73
2021/06/21 05:41:36;;;;;;;0.40;0.30;;;18.10;99.90;;;;;;4972281;28;20710;-73
2021/06/21 05:44:03;;;;;;;0.40;0.20;;;18.20;99.90;;;;;;4972957;28;20423;-72
2021/06/21 05:46:29;;;;;;;0.40;0.20;;;18.20;99.90;;;;;;4972938;28;20413;-73
2021/06/21 05:48:55;;;;;;;0.40;0.20;;;18.20;99.90;;;;;;4955390;28;20438;-72
2021/06/21 05:51:21;;;;;;;0.40;0.20;;;18.30;99.90;;;;;;4972286;28;20447;-72
2021/06/21 05:53:46;;;;;;;0.40;0.30;;;18.20;99.90;;;;;;4971892;28;20387;-72
2021/06/21 05:56:14;;;;;;;0.40;0.20;;;18.10;99.90;;;;;;4971923;28;20428;-71
2021/06/21 05:58:40;;;;;;;0.40;0.20;;;18.20;99.90;;;;;;4971826;28;20388;-72
2021/06/21 06:01:05;;;;;;;0.40;0.20;;;18.20;99.90;;;;;;4972077;28;20733;-72
2021/06/21 06:03:31;;;;;;;0.40;0.20;;;18.20;99.90;;;;;;4972004;28;20491;-71
2021/06/21 06:05:57;;;;;;;0.40;0.20;;;18.20;99.90;;;;;;4972208;28;20479;-71
2021/06/21 06:08:22;;;;;;;0.40;0.20;;;18.20;99.90;;;;;;4972645;28;20796;-72
2021/06/21 06:10:48;;;;;;;0.40;0.20;;;18.30;99.90;;;;;;4971873;28;20880;-72
2021/06/21 06:13:13;;;;;;;0.40;0.20;;;18.20;99.90;;;;;;4985109;28;20416;-72
2021/06/21 06:15:39;;;;;;;0.40;0.20;;;18.30;99.90;;;;;;4972045;28;20454;-72
2021/06/21 06:18:05;;;;;;;0.40;0.20;;;18.30;99.90;;;;;;4972326;28;20535;-72
2021/06/21 06:20:31;;;;;;;0.40;0.20;;;18.30;99.90;;;;;;4974473;28;20909;-73
2021/06/21 06:22:57;;;;;;;0.40;0.20;;;18.30;99.90;;;;;;4981232;28;20399;-72
2021/06/21 06:25:24;;;;;;;0.40;0.20;;;18.40;99.90;;;;;;4988651;28;20402;-72
2021/06/21 06:27:50;;;;;;;0.40;0.30;;;18.40;99.90;;;;;;4976805;28;20435;-72
2021/06/21 06:30:17;;;;;;;0.40;0.30;;;18.50;99.90;;;;;;4972293;28;20477;-72
2021/06/21 06:32:42;;;;;;;0.40;0.30;;;18.50;99.90;;;;;;4970163;28;20404;-73
2021/06/21 06:35:09;;;;;;;0.40;0.30;;;18.60;99.90;;;;;;4971718;28;20400;-72
2021/06/21 06:37:35;;;;;;;0.40;0.22;;;18.70;99.90;;;;;;4973780;28;20407;-73
2021/06/21 06:40:01;;;;;;;0.40;0.30;;;18.90;99.90;;;;;;4976219;28;20571;-72
2021/06/21 06:42:26;;;;;;;0.40;0.20;;;18.90;99.90;;;;;;4981142;28;20387;-72
2021/06/21 06:44:52;;;;;;;0.40;0.20;;;19.00;99.90;;;;;;4978386;28;21028;-72
2021/06/21 06:47:18;;;;;;;0.40;0.28;;;19.10;99.90;;;;;;4971959;28;20875;-72
2021/06/21 06:49:44;;;;;;;0.40;0.20;;;19.10;99.90;;;;;;4970797;28;20414;-72
2021/06/21 06:52:12;;;;;;;0.40;0.30;;;19.20;99.90;;;;;;4970934;28;20471;-72
2021/06/21 06:57:22;;;;;;;0.40;0.30;;;19.40;99.90;;;;;;4971395;28;20462;-73
2021/06/21 06:59:47;;;;;;;0.40;0.30;;;19.40;99.90;;;;;;4970822;28;20428;-73
2021/06/21 07:02:21;;;;;;;0.40;0.30;;;19.50;99.90;;;;;;4971404;28;20408;-73
2021/06/21 07:04:47;;;;;;;0.40;0.30;;;19.90;99.90;;;;;;4970691;28;20931;-73
2021/06/21 07:07:13;;;;;;;0.40;0.20;;;20.00;99.90;;;;;;4954515;28;20400;-73
2021/06/21 07:09:39;;;;;;;0.40;0.30;;;20.20;99.90;;;;;;4970688;28;20400;-73
2021/06/21 07:12:06;;;;;;;0.40;0.30;;;20.20;99.90;;;;;;4978614;28;20397;-72
2021/06/21 07:14:32;;;;;;;0.40;0.20;;;20.30;99.90;;;;;;4971453;28;20423;-73
2021/06/21 07:16:58;;;;;;;0.40;0.20;;;20.30;99.90;;;;;;4970798;28;20873;-73
2021/06/21 07:19:23;;;;;;;0.40;0.20;;;20.50;99.90;;;;;;4971614;28;20416;-72
2021/06/21 07:21:49;;;;;;;0.40;0.20;;;20.70;99.90;;;;;;4970612;28;20397;-74
2021/06/21 07:24:15;;;;;;;0.40;0.20;;;20.80;99.90;;;;;;4971760;28;20805;-72
2021/06/21 07:26:42;;;;;;;0.40;0.20;;;20.80;99.90;;;;;;4971087;28;20388;-74
2021/06/21 07:29:09;;;;;;;0.40;0.20;;;20.90;99.90;;;;;;4971606;28;20403;-72
2021/06/21 07:31:35;;;;;;;0.40;0.30;;;21.00;99.90;;;;;;4971440;28;20407;-76
2021/06/21 07:34:01;;;;;;;0.40;0.30;;;20.90;99.90;;;;;;4972153;28;20399;-74
2021/06/21 07:36:26;;;;;;;0.40;0.30;;;20.90;99.90;;;;;;4975261;28;20400;-73
2021/06/21 07:38:53;;;;;;;0.40;0.20;;;20.90;99.90;;;;;;4974712;28;20518;-74
2021/06/21 07:41:18;;;;;;;0.40;0.30;;;21.00;99.90;;;;;;4975431;28;20408;-73
2021/06/21 07:43:45;;;;;;;0.40;0.30;;;20.90;99.90;;;;;;4974344;28;20447;-74
2021/06/21 07:46:11;;;;;;;0.40;0.20;;;21.10;99.90;;;;;;4974737;28;20407;-74
2021/06/21 07:48:43;;;;;;;0.40;0.20;;;21.30;99.90;;;;;;4974895;28;20919;-76
2021/06/21 07:51:16;;;;;;;0.40;0.30;;;21.20;99.90;;;;;;4975246;28;20392;-71
2021/06/21 07:53:43;;;;;;;0.40;0.30;;;21.30;99.90;;;;;;4974237;28;20454;-72
2021/06/21 07:56:10;;;;;;;0.40;0.20;;;21.30;99.90;;;;;;4974890;28;20527;-72
2021/06/21 07:58:40;;;;;;;0.40;0.20;;;21.50;99.90;;;;;;4958011;28;20381;-72
2021/06/21 08:01:06;;;;;;;0.40;0.20;;;21.40;99.90;;;;;;4974937;28;20439;-72
2021/06/21 08:03:32;;;;;;;0.40;0.20;;;21.50;99.90;;;;;;4974834;28;20404;-71
2021/06/21 08:06:02;;;;;;;0.40;0.30;;;21.40;99.90;;;;;;4973949;28;20396;-72
2021/06/21 08:08:28;;;;;;;0.40;0.20;;;21.50;99.90;;;;;;4974986;28;20388;-73
2021/06/21 08:10:54;;;;;;;0.40;0.20;;;21.50;99.90;;;;;;4973905;28;20399;-72
2021/06/21 08:13:20;;;;;;;0.40;0.25;;;21.70;99.90;;;;;;4990123;28;20835;-72
2021/06/21 08:15:45;;;;;;;0.40;0.20;;;21.70;99.90;;;;;;4974017;28;20466;-74
2021/06/21 08:18:11;;;;;;;0.40;0.20;;;21.70;99.90;;;;;;4957254;28;20490;-73
2021/06/21 08:20:42;;;;;;;0.40;0.20;;;21.80;99.90;;;;;;4974423;28;20404;-73
2021/06/21 08:23:13;;;;;;;0.40;0.20;;;21.80;99.90;;;;;;4974564;28;20388;-72
2021/06/21 08:25:39;;;;;;;0.40;0.30;;;21.70;99.90;;;;;;4974460;28;20495;-72
2021/06/21 08:28:05;;;;;;;0.40;0.30;;;21.70;99.90;;;;;;4974299;28;20458;-73
2021/06/21 08:30:31;;;;;;;0.40;0.20;;;21.60;99.90;;;;;;4974342;28;20768;-72
2021/06/21 08:32:57;;;;;;;0.40;0.20;;;21.60;99.90;;;;;;4973709;28;20392;-72
2021/06/21 08:35:23;;;;;;;0.40;0.20;;;21.60;99.90;;;;;;4974277;28;20471;-74
2021/06/21 08:37:49;;;;;;;0.40;0.20;;;21.60;99.90;;;;;;4973491;28;20396;-73
2021/06/21 08:40:16;;;;;;;0.40;0.20;;;21.70;99.90;;;;;;4974318;28;20979;-72
2021/06/21 08:42:42;;;;;;;0.40;0.20;;;21.70;99.90;;;;;;4973550;28;20459;-74
2021/06/21 08:45:09;;;;;;;0.40;0.30;;;21.60;99.90;;;;;;4973624;28;20742;-73
2021/06/21 08:47:36;;;;;;;0.40;0.20;;;21.50;99.90;;;;;;4974240;28;20469;-73
2021/06/21 08:50:05;;;;;;;0.40;0.30;;;21.50;99.90;;;;;;4973281;28;20406;-72
2021/06/21 08:52:31;;;;;;;0.40;0.20;;;21.60;99.90;;;;;;4974279;28;20753;-73
2021/06/21 08:55:06;;;;;;;0.40;0.20;;;21.70;99.90;;;;;;4973405;28;20400;-74
2021/06/21 08:57:37;;;;;;;0.40;0.20;;;21.70;99.90;;;;;;4974139;28;20393;-73
2021/06/21 09:00:06;;;;;;;0.40;0.30;;;21.80;99.90;;;;;;4973010;28;21297;-74
2021/06/21 09:02:31;;;;;;;0.40;0.30;;;21.80;99.90;;;;;;4973682;28;20797;-74
2021/06/21 09:04:57;;;;;;;0.40;0.30;;;21.90;99.90;;;;;;4973248;28;20393;-73
2021/06/21 09:07:25;;;;;;;0.40;0.20;;;22.00;99.90;;;;;;4973441;28;20853;-74
2021/06/21 09:09:53;;;;;;;0.40;0.30;;;22.10;99.90;;;;;;4973104;28;20400;-73
2021/06/21 09:12:31;;;;;;;0.40;0.20;;;22.20;99.90;;;;;;4973330;28;20887;-73
2021/06/21 09:14:59;;;;;;;0.40;0.20;;;22.10;99.90;;;;;;4972714;28;20471;-75
2021/06/21 09:17:27;;;;;;;0.40;0.30;;;22.20;99.90;;;;;;4973494;28;20392;-72
2021/06/21 09:20:04;;;;;;;0.40;0.30;;;22.30;99.90;;;;;;4972678;28;20420;-73
2021/06/21 09:22:34;;;;;;;0.40;0.20;;;22.30;99.90;;;;;;4973448;28;20424;-72
2021/06/21 09:25:03;;;;;;;0.40;0.20;;;22.40;99.90;;;;;;4972618;28;20487;-74
2021/06/21 09:27:29;;;;;;;0.40;0.30;;;22.60;99.10;;;;;;4973013;28;20913;-73
2021/06/21 09:29:55;;;;;;;0.40;0.30;;;22.60;98.80;;;;;;4972440;28;20487;-73
2021/06/21 09:32:38;;;;;;;0.40;0.22;;;22.60;98.70;;;;;;4973524;28;20424;-74
2021/06/21 09:35:04;;;;;;;0.40;0.30;;;22.60;98.10;;;;;;4972411;28;21084;-73
2021/06/21 09:37:46;;;;;;;0.40;0.30;;;22.80;98.70;;;;;;4987948;28;20400;-74
2021/06/21 09:40:28;;;;;;;0.40;0.20;;;23.00;98.40;;;;;;4973331;28;20427;-73
2021/06/21 09:42:54;;;;;;;0.40;0.30;;;23.10;99.80;;;;;;4972332;28;20409;-75
2021/06/21 09:45:19;;;;;;;0.40;0.30;;;23.30;96.80;;;;;;4972612;28;20396;-73
2021/06/21 09:47:45;;;;;;;0.40;0.20;;;23.40;95.00;;;;;;4972587;28;20788;-75
2021/06/21 09:50:26;;;;;;;0.40;0.20;;;23.50;95.50;;;;;;4973115;28;20404;-74
2021/06/21 09:53:03;;;;;;;0.40;0.20;;;23.40;95.80;;;;;;4972379;28;20888;-75
2021/06/21 09:55:45;;;;;;;0.40;0.20;;;23.50;93.40;;;;;;4973314;28;20952;-76
2021/06/21 09:58:17;;;;;;;0.40;0.20;;;23.50;92.40;;;;;;4952657;28;20458;-74
2021/06/21 10:00:52;;;;;;;0.40;0.30;;;23.70;92.50;;;;;;4967867;28;20777;-74
2021/06/21 10:03:20;;;;;;;0.40;0.30;;;23.70;93.50;;;;;;4972504;28;20403;-74
2021/06/21 10:06:09;;;;;;;0.40;0.30;;;23.70;94.20;;;;;;4972436;28;20737;-75
2021/06/21 10:08:47;;;;;;;0.40;0.30;;;23.80;92.70;;;;;;4960855;28;20432;-73
2021/06/21 10:11:29;;;;;;;0.40;0.20;;;23.90;91.90;;;;;;4972315;28;20388;-73
2021/06/21 10:13:56;;;;;;;0.40;0.30;;;24.10;91.60;;;;;;4971795;28;20440;-75
2021/06/21 10:16:22;;;;;;;0.40;0.30;;;24.00;91.50;;;;;;4971932;28;20949;-74
2021/06/21 10:18:48;;;;;;;0.40;0.30;;;23.90;92.00;;;;;;4971424;28;20527;-76
2021/06/21 10:21:14;;;;;;;0.40;0.30;;;24.00;91.50;;;;;;4972713;28;20465;-75
2021/06/21 10:23:40;;;;;;;0.40;0.20;;;24.00;90.80;;;;;;4972336;28;20836;-75
2021/06/21 10:26:05;;;;;;;0.40;0.30;;;23.90;91.20;;;;;;4971396;28;20412;-74
2021/06/21 10:28:31;;;;;;;0.40;0.20;;;24.00;90.90;;;;;;4974130;28;20483;-74
2021/06/21 10:30:57;;;;;;;0.40;0.20;;;24.10;90.80;;;;;;4971796;28;20399;-74
2021/06/21 10:33:22;;;;;;;0.40;0.30;;;24.20;89.90;;;;;;4971881;28;20455;-74
2021/06/21 10:35:48;;;;;;;0.40;0.30;;;24.20;90.90;;;;;;4971654;28;20812;-76
2021/06/21 10:38:16;;;;;;;0.40;0.30;;;24.20;90.10;;;;;;4971924;28;20392;-74
2021/06/21 10:41:02;;;;;;;0.40;0.30;;;24.30;88.70;;;;;;4971999;28;20502;-75
2021/06/21 10:43:40;;;;;;;0.40;0.30;;;24.10;90.30;;;;;;4954551;28;20507;-75
2021/06/21 10:46:21;;;;;;;0.40;0.20;;;24.10;90.10;;;;;;4970724;28;20987;-74
2021/06/21 10:49:02;;;;;;;0.40;0.30;;;24.20;90.70;;;;;;4972062;28;20392;-77
2021/06/21 10:51:36;;;;;;;0.40;0.30;;;24.40;90.30;;;;;;4972101;28;20408;-74
2021/06/21 10:54:03;;;;;;;0.40;0.30;;;24.50;90.40;;;;;;4971192;28;20392;-75
2021/06/21 10:56:46;;;;;;;0.40;0.30;;;24.60;89.90;;;;;;4971803;28;20384;-75
2021/06/21 10:59:17;;;;;;;0.40;0.20;;;24.60;89.10;;;;;;4951529;29;20429;-74
2021/06/21 11:01:48;;;;;;;0.40;0.30;;;24.70;90.00;;;;;;4981777;28;20746;-73
2021/06/21 11:04:34;;;;;;;0.40;0.20;;;24.70;86.20;;;;;;4971390;28;20475;-75
2021/06/21 11:07:22;;;;;;;0.40;0.20;;;24.60;85.20;;;;;;4971342;28;20397;-74
2021/06/21 11:09:50;;;;;;;0.40;0.20;;;24.60;88.50;;;;;;4956120;28;20410;-73
2021/06/21 11:12:22;;;;;;;0.40;0.30;;;24.80;87.80;;;;;;4976737;28;20394;-73
2021/06/21 11:15:03;;;;;;;0.40;0.30;;;24.80;89.10;;;;;;4994590;28;20477;-75
2021/06/21 11:17:30;;;;;;;0.40;0.30;;;25.00;89.90;;;;;;4956302;29;20496;-75
2021/06/21 11:19:56;;;;;;;0.40;0.30;;;25.00;86.90;;;;;;4964704;28;20419;-73
2021/06/21 11:22:42;;;;;;;0.40;0.30;;;25.50;89.10;;;;;;4975832;28;20427;-74
2021/06/21 11:25:25;;;;;;;0.40;0.30;;;25.80;85.60;;;;;;4974660;28;20403;-73
2021/06/21 11:27:52;;;;;;;0.40;0.30;;;25.40;85.90;;;;;;4974911;28;20412;-74
2021/06/21 11:30:26;;;;;;;0.40;0.30;;;25.50;84.80;;;;;;4975841;28;20445;-74
2021/06/21 11:33:05;;;;;;;0.40;0.30;;;25.40;82.80;;;;;;4974791;28;20388;-77
2021/06/21 11:35:56;;;;;;;0.40;0.20;;;25.80;82.70;;;;;;4990721;28;20400;-75
2021/06/21 11:38:26;;;;;;;0.40;0.20;;;26.00;80.80;;;;;;4990527;28;20876;-74
2021/06/21 11:41:17;;;;;;;0.40;0.20;;;26.00;81.00;;;;;;4957316;28;20436;-74
2021/06/21 11:43:45;;;;;;;0.40;0.20;;;26.10;79.40;;;;;;4975128;28;20412;-74
2021/06/21 11:46:31;;;;;;;0.40;0.20;;;26.20;77.00;;;;;;4974629;28;20395;-74
2021/06/21 11:49:22;;;;;;;0.40;0.30;;;26.90;76.90;;;;;;4974356;28;20475;-74
2021/06/21 11:52:03;;;;;;;0.40;0.20;;;27.60;72.60;;;;;;4957981;28;20920;-73
2021/06/21 11:54:38;;;;;;;0.40;0.20;;;28.20;74.80;;;;;;4975265;28;20471;-72
2021/06/21 11:57:05;;;;;;;0.40;0.20;;;27.70;71.40;;;;;;4973810;28;20408;-75
2021/06/21 11:59:43;;;;;;;0.40;0.30;;;27.80;72.00;;;;;;4975137;28;20435;-73
2021/06/21 12:02:29;;;;;;;0.40;0.30;;;27.70;67.60;;;;;;4974236;28;20411;-76
2021/06/21 12:04:54;;;;;;;0.40;0.30;;;27.70;64.90;;;;;;4973710;28;20832;-75
2021/06/21 12:07:30;;;;;;;0.40;0.30;;;28.50;63.00;;;;;;4974896;28;20455;-74
2021/06/21 12:09:57;;;;;;;0.40;0.30;;;28.40;67.30;;;;;;4954888;29;20472;-76
2021/06/21 12:12:28;;;;;;;0.40;0.20;;;27.40;63.60;;;;;;4967259;28;20411;-74
2021/06/21 12:14:54;;;;;;;0.40;0.20;;;28.30;69.30;;;;;;4973893;28;20420;-77
2021/06/21 12:17:26;;;;;;;0.40;0.20;;;29.00;64.20;;;;;;4975191;28;20392;-75
2021/06/21 12:20:08;;;;;;;0.40;0.30;;;28.70;62.40;;;;;;4973390;28;20420;-76
2021/06/21 12:22:35;;;;;;;0.40;0.20;;;28.40;61.90;;;;;;4974525;28;20442;-74
2021/06/21 12:25:02;;;;;;;0.40;0.30;;;28.20;60.40;;;;;;4973623;28;20447;-74
2021/06/21 12:27:30;;;;;;;0.40;0.30;;;28.20;65.30;;;;;;4974676;28;20395;-75
2021/06/21 12:29:56;;;;;;;0.40;0.20;;;28.40;69.00;;;;;;4973620;28;20416;-77
2021/06/21 12:32:29;;;;;;;0.40;0.30;;;28.60;61.80;;;;;;4974052;28;20468;-75
2021/06/21 12:34:59;;;;;;;0.40;0.20;;;28.70;63.20;;;;;;4956812;28;20851;-76
2021/06/21 12:37:38;;;;;;;0.40;0.30;;;29.40;67.10;;;;;;4965151;28;20482;-76
2021/06/21 12:40:13;;;;;;;0.40;0.20;;;29.60;59.20;;;;;;4973249;28;20503;-76
2021/06/21 12:42:39;;;;;;;0.40;0.20;;;29.60;59.40;;;;;;4973967;28;20404;-75
2021/06/21 12:45:11;;;;;;;0.40;0.20;;;28.20;61.70;;;;;;4973283;28;20475;-75
2021/06/21 12:47:45;;;;;;;0.40;0.20;;;28.80;66.70;;;;;;4974070;28;20396;-74
2021/06/21 12:50:12;;;;;;;0.50;0.20;;;29.40;57.60;;;;;;4984646;28;20401;-75
2021/06/21 12:52:44;;;;;;;0.40;0.20;;;29.10;57.40;;;;;;4993286;28;20418;-77
2021/06/21 12:55:13;;;;;;;0.50;0.20;;;29.00;58.40;;;;;;4972767;28;20455;-76
2021/06/21 12:57:55;;;;;;;0.40;0.20;;;27.80;57.50;;;;;;4955684;28;20749;-76
2021/06/21 13:00:42;;;;;;;1.20;0.40;;;28.40;61.20;;;;;;4973003;28;20424;-74
2021/06/21 13:03:09;;;;;;;0.47;0.30;;;28.00;60.90;;;;;;4972845;28;20447;-75